Aérodrome :
LOGIN :

S'inscrire | Disclaimer

   EN    FR    IT 

 










Légende :    VFR   VFR Marginal   IFR   IFR Intensif   IFR Très Intensif
Visi : 
Plafond : 
>= 8 km
>= 3000ft
5 à 8 km
1000 à 3000 ft
1500m à 5 km
500 à 1000 ft
800 à 1500m
200 à 500 ft
< 800m
< 200 ft
Symboles :   Orages  Brouillard  Fortes neiges  Fortes précipitations  Vent > 20 kt
SIGMETs :   Divers  Orages  Givrage  Turbulence  Onde Orograph.  Cendres Volcan.






- Altitude de l'aérodrome : 26 ft
- Code IATA : BIA


LFKB - Bastia

DERNIER METAR :
  • 150200Z AUTO 21003KT CAVOK 21/19 Q1012 NOSIG

METARs EXPIRÉS :
  • 150130Z AUTO 21003KT CAVOK ///// Q1012 NOSIG
  • 150100Z AUTO 00000KT CAVOK 22/20 Q1012 NOSIG
  • 150030Z AUTO 20004KT CAVOK 22/20 Q1012 NOSIG
  • 150000Z AUTO VRB02KT CAVOK 23/21 Q1012 NOSIG
  • 142330Z AUTO VRB02KT CAVOK 23/21 Q1012 NOSIG

TAF TAF LFKB
Valide du 14 à 21h jusqu'au 15 à 21h UTC


142000Z 1421/1521 22005KT CAVOK TX31/1512Z TN22/1503Z
BECMG 1510/1512 14010KT
BECMG 1518/1520 22006KT
ATIS : +33 4 95 59 19 40



MET'MAP, la Météo Aéronautique d'un coup d'oeil ! - Copyright ORBIFLY Décembre 2007 - Disclaimer

ORBIFLY MET'MAP TEAM :

Programmation & Développement : Alexandra Zaïnal
Sur une idée originale de : Baudouin d'Aumeries
Assistance à la programmation : Marc-Olivier Méhu
Soutien technique & logistique : Manuel Goepfert

Contact : metmap@orbifly.com




SOURCES & CREDITS :

   NOAA